Time;durP1;ratioP1;P1;durP2;ratioP2;P2;SDS_P1;SDS_P2;PMS_P1;PMS_P2;Temp;Humidity;BMP_temperature;BMP_pressure;BME280_temperature;BME280_humidity;BME280_pressure;Samples;Min_cycle;Max_cycle;Signal;HPM_P1;HPM_P2
2022/11/27 00:00:57;;;;;;;16.88;5.47;;;6.50;99.90;;;;;;5115411;27;20058;-66
2022/11/27 00:03:23;;;;;;;17.45;5.32;;;6.50;99.90;;;;;;5115553;27;20114;-67
2022/11/27 00:05:56;;;;;;;17.20;5.43;;;6.40;99.90;;;;;;5115453;27;20039;-67
2022/11/27 00:08:23;;;;;;;17.80;5.55;;;6.40;99.90;;;;;;5115201;27;20048;-68
2022/11/27 00:10:49;;;;;;;19.27;5.15;;;6.40;99.90;;;;;;5115507;27;20066;-66
2022/11/27 00:13:15;;;;;;;14.52;4.70;;;6.40;99.90;;;;;;5115356;27;20082;-67
2022/11/27 00:15:41;;;;;;;12.68;4.88;;;6.40;99.90;;;;;;5115387;27;20565;-67
2022/11/27 00:18:07;;;;;;;12.00;5.00;;;6.40;99.90;;;;;;5114829;27;20039;-66
2022/11/27 00:20:33;;;;;;;13.40;5.07;;;6.40;99.90;;;;;;5115375;27;20062;-67
2022/11/27 00:22:59;;;;;;;11.80;4.80;;;6.40;99.90;;;;;;5115490;27;20075;-68
2022/11/27 00:25:24;;;;;;;16.83;5.72;;;6.40;99.90;;;;;;5115367;27;20027;-67
2022/11/27 00:27:50;;;;;;;15.98;4.55;;;6.30;99.90;;;;;;5115167;27;20132;-66
2022/11/27 00:30:15;;;;;;;13.00;4.85;;;6.30;99.90;;;;;;5115328;27;20977;-68
2022/11/27 00:32:41;;;;;;;14.75;4.78;;;6.30;99.90;;;;;;5115310;27;20035;-67
2022/11/27 00:35:07;;;;;;;15.32;5.15;;;6.30;99.90;;;;;;5114549;27;20051;-66
2022/11/27 00:37:33;;;;;;;15.10;5.72;;;6.30;99.90;;;;;;5115166;27;20389;-67
2022/11/27 00:39:58;;;;;;;16.27;5.65;;;6.20;99.90;;;;;;5114834;27;20039;-66
2022/11/27 00:42:24;;;;;;;12.30;4.45;;;6.20;99.90;;;;;;5114915;27;20035;-68
2022/11/27 00:44:50;;;;;;;14.68;5.03;;;6.20;99.90;;;;;;5115020;27;20050;-68
2022/11/27 00:47:16;;;;;;;16.30;4.93;;;6.20;99.90;;;;;;5114578;27;20651;-68
2022/11/27 00:49:41;;;;;;;10.15;5.00;;;6.20;99.90;;;;;;5097317;27;20050;-66
2022/11/27 00:52:07;;;;;;;16.08;5.63;;;6.20;99.90;;;;;;5114470;27;20035;-66
2022/11/27 00:54:33;;;;;;;17.25;5.70;;;6.10;99.90;;;;;;5114640;27;20043;-65
2022/11/27 00:56:59;;;;;;;13.15;4.68;;;6.10;99.90;;;;;;5114670;27;20513;-67
2022/11/27 00:59:25;;;;;;;12.00;5.10;;;6.10;99.90;;;;;;5114320;27;20035;-66
2022/11/27 01:01:51;;;;;;;12.25;4.80;;;6.10;99.90;;;;;;5114436;27;20152;-66
2022/11/27 01:04:17;;;;;;;9.38;4.85;;;6.10;99.90;;;;;;5114311;27;20122;-66
2022/11/27 01:06:44;;;;;;;11.68;5.43;;;6.10;99.90;;;;;;5108214;27;20050;-67
2022/11/27 01:09:11;;;;;;;21.23;5.40;;;6.10;99.90;;;;;;5113953;27;20070;-66
2022/11/27 01:11:37;;;;;;;14.38;5.50;;;6.10;99.90;;;;;;5113665;27;20115;-67
2022/11/27 01:14:06;;;;;;;14.57;5.38;;;6.10;99.90;;;;;;5113962;27;20027;-67
2022/11/27 01:16:33;;;;;;;15.60;5.22;;;6.00;99.90;;;;;;5113994;27;20035;-69
2022/11/27 01:19:00;;;;;;;12.35;5.38;;;6.00;99.90;;;;;;5096882;27;20417;-67
2022/11/27 01:21:29;;;;;;;13.90;5.50;;;6.00;99.90;;;;;;5113479;27;20035;-67
2022/11/27 01:23:55;;;;;;;14.55;5.07;;;6.00;99.90;;;;;;5131882;27;20047;-66
2022/11/27 01:26:21;;;;;;;14.40;4.80;;;6.00;99.90;;;;;;5113619;27;20032;-68
2022/11/27 01:28:46;;;;;;;10.55;4.68;;;6.00;99.90;;;;;;5132048;27;20379;-68
2022/11/27 01:31:17;;;;;;;16.08;5.20;;;6.00;99.90;;;;;;5113357;27;20280;-66
2022/11/27 01:33:44;;;;;;;13.63;4.80;;;5.90;99.90;;;;;;5113604;27;20046;-66
2022/11/27 01:36:11;;;;;;;13.90;4.72;;;5.90;99.90;;;;;;5113402;27;20497;-66
2022/11/27 01:38:37;;;;;;;12.38;5.60;;;5.90;99.90;;;;;;5113349;27;20461;-66
2022/11/27 01:41:27;;;;;;;12.98;4.88;;;5.90;99.90;;;;;;5113596;27;20070;-67
2022/11/27 01:44:02;;;;;;;14.02;4.95;;;5.90;99.90;;;;;;5103787;27;20047;-67
2022/11/27 01:46:42;;;;;;;16.05;4.93;;;5.80;99.90;;;;;;5112686;27;20052;-67
2022/11/27 01:49:23;;;;;;;14.25;5.60;;;5.80;99.90;;;;;;5113439;27;20035;-67
2022/11/27 01:52:00;;;;;;;11.88;5.05;;;5.80;99.90;;;;;;5113744;27;20038;-67
2022/11/27 01:54:30;;;;;;;14.60;5.53;;;5.80;99.90;;;;;;5113323;27;20078;-65
2022/11/27 01:57:00;;;;;;;11.30;5.28;;;5.70;99.90;;;;;;5113545;27;20035;-68
2022/11/27 01:59:26;;;;;;;15.93;5.63;;;5.70;99.90;;;;;;5113161;28;20049;-66
2022/11/27 02:01:51;;;;;;;14.60;5.30;;;5.70;99.90;;;;;;5113928;27;20034;-67
2022/11/27 02:04:18;;;;;;;13.15;5.90;;;5.70;99.90;;;;;;5113590;27;20043;-67
2022/11/27 02:06:45;;;;;;;17.20;5.55;;;5.70;99.90;;;;;;5113491;27;20070;-66
2022/11/27 02:09:10;;;;;;;17.05;5.95;;;5.70;99.90;;;;;;5112972;27;20266;-66
2022/11/27 02:11:42;;;;;;;14.55;5.25;;;5.70;99.90;;;;;;5113068;27;20126;-66
2022/11/27 02:14:14;;;;;;;14.02;6.13;;;5.60;99.90;;;;;;5113545;28;20486;-67
2022/11/27 02:16:50;;;;;;;10.60;5.25;;;5.60;99.90;;;;;;5095488;28;20051;-66
2022/11/27 02:19:54;;;;;;;12.13;5.32;;;5.60;99.90;;;;;;5113338;28;20383;-67
2022/11/27 02:22:34;;;;;;;14.25;6.40;;;5.60;99.90;;;;;;5113586;28;20481;-68
2022/11/27 02:25:04;;;;;;;17.17;6.25;;;5.60;99.90;;;;;;5112888;28;20161;-67
2022/11/27 02:27:38;;;;;;;19.58;6.07;;;5.50;99.90;;;;;;5112876;28;20397;-66
2022/11/27 02:30:05;;;;;;;16.27;5.70;;;5.50;99.90;;;;;;5113096;28;20042;-65
2022/11/27 02:32:39;;;;;;;16.27;6.18;;;5.50;99.90;;;;;;5113265;28;20050;-67
2022/11/27 02:35:19;;;;;;;13.85;5.57;;;5.50;99.90;;;;;;5113138;28;20039;-68
2022/11/27 02:37:44;;;;;;;18.75;5.82;;;5.50;99.90;;;;;;5113094;28;20047;-67
2022/11/27 02:40:22;;;;;;;15.65;5.38;;;5.50;99.90;;;;;;5113310;28;20050;-67
2022/11/27 02:42:59;;;;;;;14.80;5.63;;;5.50;99.90;;;;;;5113104;28;20043;-66
2022/11/27 02:45:33;;;;;;;21.58;6.63;;;5.50;99.90;;;;;;5096368;28;20532;-67
2022/11/27 02:47:58;;;;;;;16.95;6.00;;;5.40;99.90;;;;;;5113177;28;20542;-65
2022/11/27 02:50:26;;;;;;;14.35;5.75;;;5.50;99.90;;;;;;5113197;28;20031;-66
2022/11/27 02:52:58;;;;;;;10.90;5.20;;;5.50;99.90;;;;;;5113048;28;20043;-65
2022/11/27 02:55:26;;;;;;;17.80;5.80;;;5.50;99.90;;;;;;5113294;28;20046;-66
2022/11/27 02:57:55;;;;;;;18.85;6.43;;;5.50;99.90;;;;;;5108806;27;20100;-67
2022/11/27 03:00:21;;;;;;;17.05;5.63;;;5.50;99.90;;;;;;5116750;27;20043;-67
2022/11/27 03:02:52;;;;;;;14.75;5.43;;;5.50;99.90;;;;;;5116402;27;20813;-65
2022/11/27 03:05:21;;;;;;;13.40;6.30;;;5.50;99.90;;;;;;5099252;27;20046;-67
2022/11/27 03:08:04;;;;;;;11.85;5.40;;;5.50;99.90;;;;;;5116024;27;20451;-67
2022/11/27 03:10:41;;;;;;;17.48;6.75;;;5.50;99.90;;;;;;5116354;27;20039;-68
2022/11/27 03:13:07;;;;;;;15.50;5.28;;;5.50;99.90;;;;;;5115886;27;20046;-68
2022/11/27 03:15:49;;;;;;;14.27;5.53;;;5.50;99.90;;;;;;5116105;27;20043;-66
2022/11/27 03:18:34;;;;;;;;;;;5.50;99.90;;;;;;5116426;27;20113;-67
2022/11/27 03:21:10;;;;;;;11.57;4.80;;;5.40;99.90;;;;;;5116058;27;20350;-67
2022/11/27 03:23:35;;;;;;;12.65;4.70;;;5.50;99.90;;;;;;5116057;27;20043;-66
2022/11/27 03:26:01;;;;;;;14.13;5.35;;;5.50;99.90;;;;;;5115607;27;20401;-67
2022/11/27 03:28:28;;;;;;;13.13;4.63;;;5.50;99.90;;;;;;5115595;27;20080;-67
2022/11/27 03:30:53;;;;;;;13.27;4.95;;;5.50;99.90;;;;;;5116394;27;20071;-67
2022/11/27 03:33:19;;;;;;;15.90;5.25;;;5.50;99.90;;;;;;5115947;27;20074;-67
2022/11/27 03:35:45;;;;;;;11.00;4.78;;;5.50;99.90;;;;;;5116033;27;20045;-68
2022/11/27 03:38:11;;;;;;;12.23;4.60;;;5.50;99.90;;;;;;5115913;27;20039;-67
2022/11/27 03:40:47;;;;;;;17.63;5.47;;;5.50;99.90;;;;;;5116113;27;20074;-67
2022/11/27 03:43:21;;;;;;;15.10;4.50;;;5.50;99.90;;;;;;5116038;27;20038;-66
2022/11/27 03:46:00;;;;;;;13.10;4.72;;;5.60;99.90;;;;;;5098495;27;20490;-67
2022/11/27 03:48:42;;;;;;;16.55;5.03;;;5.60;99.90;;;;;;5116341;27;20420;-66
2022/11/27 03:51:10;;;;;;;11.32;4.60;;;5.60;99.90;;;;;;5134053;27;20067;-67
2022/11/27 03:54:01;;;;;;;10.25;4.47;;;5.60;99.90;;;;;;5115848;27;20050;-66
2022/11/27 03:56:41;;;;;;;14.90;4.82;;;5.60;99.90;;;;;;5115709;27;20038;-66
2022/11/27 03:59:19;;;;;;;12.23;4.22;;;5.70;99.90;;;;;;5115640;27;20099;-66
2022/11/27 04:01:45;;;;;;;11.68;4.72;;;5.70;99.90;;;;;;5115682;27;20046;-67
2022/11/27 04:04:11;;;;;;;12.05;4.85;;;5.70;99.90;;;;;;5115371;27;20115;-66
2022/11/27 04:06:37;;;;;;;13.15;4.63;;;5.70;99.90;;;;;;5115529;27;20130;-67
2022/11/27 04:09:03;;;;;;;12.73;4.53;;;5.70;99.90;;;;;;5114893;27;20043;-67
2022/11/27 04:11:29;;;;;;;12.93;4.68;;;5.70;99.90;;;;;;5115381;27;20496;-67
2022/11/27 04:13:54;;;;;;;11.43;4.38;;;5.70;99.90;;;;;;5115590;27;20035;-67
2022/11/27 04:16:20;;;;;;;10.88;4.45;;;5.70;99.90;;;;;;5115175;27;20075;-67
2022/11/27 04:18:46;;;;;;;13.65;4.40;;;5.70;99.90;;;;;;5115217;27;20035;-67
2022/11/27 04:21:11;;;;;;;11.63;4.28;;;5.70;99.90;;;;;;5115218;27;20087;-66
2022/11/27 04:23:37;;;;;;;10.57;4.43;;;5.70;99.90;;;;;;5115000;27;20046;-66
2022/11/27 04:26:04;;;;;;;12.13;4.47;;;5.70;99.90;;;;;;5114938;27;20435;-67
2022/11/27 04:28:30;;;;;;;13.00;4.30;;;5.70;99.90;;;;;;5115164;27;20043;-67
2022/11/27 04:30:55;;;;;;;10.90;4.38;;;5.70;99.90;;;;;;5114983;27;20035;-68
2022/11/27 04:33:22;;;;;;;13.95;4.07;;;5.70;99.90;;;;;;5114897;27;20057;-68
2022/11/27 04:35:48;;;;;;;9.90;4.10;;;5.70;99.90;;;;;;5115053;27;20041;-67
2022/11/27 04:38:14;;;;;;;10.05;3.72;;;5.70;99.90;;;;;;5115101;27;20778;-66
2022/11/27 04:40:39;;;;;;;12.30;3.88;;;5.70;99.90;;;;;;5114885;27;20035;-66
2022/11/27 04:43:05;;;;;;;12.50;3.53;;;5.70;99.90;;;;;;5114807;27;20066;-68
2022/11/27 04:45:30;;;;;;;12.85;3.97;;;5.70;99.90;;;;;;5133112;27;20401;-68
2022/11/27 04:47:56;;;;;;;14.75;4.10;;;5.70;99.90;;;;;;5110861;27;20046;-66
2022/11/27 04:50:22;;;;;;;9.77;4.03;;;5.70;99.90;;;;;;5114605;27;20434;-66
2022/11/27 04:52:47;;;;;;;12.45;4.82;;;5.70;99.90;;;;;;5113914;27;20615;-65
2022/11/27 04:55:13;;;;;;;8.27;3.88;;;5.70;99.90;;;;;;5114556;27;20061;-67
2022/11/27 04:57:39;;;;;;;14.52;4.53;;;5.70;99.90;;;;;;5113997;27;20085;-67
2022/11/27 05:00:05;;;;;;;11.30;3.78;;;5.70;99.90;;;;;;5114117;27;20109;-66
2022/11/27 05:02:31;;;;;;;12.48;4.05;;;5.70;99.90;;;;;;5114216;27;20043;-66
2022/11/27 05:04:56;;;;;;;9.95;3.40;;;5.70;99.90;;;;;;5113526;27;20039;-65
2022/11/27 05:07:22;;;;;;;15.18;4.22;;;5.70;99.90;;;;;;5114022;27;20065;-66
2022/11/27 05:09:48;;;;;;;12.07;3.42;;;5.70;99.90;;;;;;5113741;27;20054;-66
2022/11/27 05:12:13;;;;;;;11.50;3.30;;;5.70;99.90;;;;;;5113912;27;20439;-66
2022/11/27 05:14:39;;;;;;;12.05;3.65;;;5.60;99.90;;;;;;5113839;27;20055;-66
2022/11/27 05:17:05;;;;;;;10.60;3.60;;;5.60;99.90;;;;;;5113819;27;20066;-67
2022/11/27 05:19:30;;;;;;;10.32;3.90;;;5.60;99.90;;;;;;5113186;27;20035;-65
2022/11/27 05:21:57;;;;;;;12.32;4.75;;;5.60;99.90;;;;;;5112895;27;20130;-66
2022/11/27 05:24:24;;;;;;;12.07;3.72;;;5.60;99.90;;;;;;5113636;27;20038;-66
2022/11/27 05:26:50;;;;;;;11.50;4.00;;;5.60;99.90;;;;;;5113825;27;20043;-68
2022/11/27 05:29:17;;;;;;;11.65;4.05;;;5.60;99.90;;;;;;5113861;27;20366;-68
2022/11/27 05:31:43;;;;;;;10.93;3.80;;;5.60;99.90;;;;;;5113731;27;20046;-66
2022/11/27 05:34:09;;;;;;;9.10;3.90;;;5.60;99.90;;;;;;5114118;27;20031;-66
2022/11/27 05:36:35;;;;;;;12.82;3.67;;;5.60;99.90;;;;;;5113996;27;20490;-67
2022/11/27 05:39:03;;;;;;;15.73;3.90;;;5.60;99.90;;;;;;5113948;27;20520;-68
2022/11/27 05:41:29;;;;;;;9.48;3.50;;;5.60;99.90;;;;;;5113497;27;20054;-67
2022/11/27 05:43:55;;;;;;;11.82;4.00;;;5.60;99.90;;;;;;5113350;27;20039;-68
2022/11/27 05:46:21;;;;;;;8.38;4.18;;;5.60;99.90;;;;;;5113501;27;20554;-67
2022/11/27 05:48:48;;;;;;;11.82;4.32;;;5.60;99.90;;;;;;5113452;27;20031;-68
2022/11/27 05:51:14;;;;;;;12.38;3.95;;;5.60;99.90;;;;;;5113576;27;20042;-67
2022/11/27 05:53:40;;;;;;;11.32;3.72;;;5.50;99.90;;;;;;5113679;27;20430;-67
2022/11/27 05:56:09;;;;;;;9.70;3.72;;;5.60;99.90;;;;;;5113399;27;20043;-67
2022/11/27 05:58:35;;;;;;;13.05;4.00;;;5.60;99.90;;;;;;5113482;27;20039;-67
2022/11/27 06:01:01;;;;;;;12.43;3.75;;;5.60;99.90;;;;;;5113332;27;20100;-68
2022/11/27 06:03:27;;;;;;;10.23;4.82;;;5.60;99.90;;;;;;5113294;27;20039;-66
2022/11/27 06:05:53;;;;;;;11.93;4.20;;;5.60;99.90;;;;;;5113131;28;20092;-67
2022/11/27 06:08:19;;;;;;;10.93;3.75;;;5.60;99.90;;;;;;5109771;28;20086;-67
2022/11/27 06:10:46;;;;;;;11.10;3.72;;;5.60;99.90;;;;;;5110014;28;20546;-66
2022/11/27 06:13:12;;;;;;;10.70;3.92;;;5.60;99.90;;;;;;5109686;28;20040;-68
2022/11/27 06:15:38;;;;;;;10.70;4.10;;;5.60;99.90;;;;;;5109921;28;20031;-66
2022/11/27 06:18:04;;;;;;;10.38;4.00;;;5.60;99.90;;;;;;5110099;28;20067;-68
2022/11/27 06:20:30;;;;;;;8.40;3.35;;;5.60;99.90;;;;;;5109642;28;20075;-67
2022/11/27 06:22:56;;;;;;;12.02;4.40;;;5.60;99.90;;;;;;5109612;28;20147;-67
2022/11/27 06:25:23;;;;;;;7.25;3.58;;;5.60;99.90;;;;;;5109539;28;20035;-68
2022/11/27 06:27:49;;;;;;;10.73;4.68;;;5.60;99.90;;;;;;5092740;28;20077;-68
2022/11/27 06:30:15;;;;;;;10.40;3.97;;;5.60;99.90;;;;;;5109612;28;20027;-68
2022/11/27 06:32:40;;;;;;;10.60;4.18;;;5.60;99.90;;;;;;5110395;28;20532;-67
2022/11/27 06:35:06;;;;;;;14.10;4.13;;;5.60;99.90;;;;;;5113849;28;20062;-67
2022/11/27 06:37:32;;;;;;;8.68;4.22;;;5.60;99.90;;;;;;5113796;28;20088;-67
2022/11/27 06:39:58;;;;;;;11.95;4.20;;;5.60;99.90;;;;;;5109899;28;20401;-67
2022/11/27 06:42:24;;;;;;;11.70;4.45;;;5.60;99.90;;;;;;5096300;28;20039;-67
2022/11/27 06:44:49;;;;;;;10.05;4.28;;;5.60;99.90;;;;;;5113439;28;20046;-68
2022/11/27 06:47:15;;;;;;;12.23;4.20;;;5.60;99.90;;;;;;5113063;28;20046;-67
2022/11/27 06:49:41;;;;;;;12.32;4.50;;;5.60;99.90;;;;;;5113435;28;20043;-67
2022/11/27 06:52:06;;;;;;;10.30;4.10;;;5.70;99.90;;;;;;5113699;28;20031;-67
2022/11/27 06:54:32;;;;;;;11.70;4.03;;;5.70;99.90;;;;;;5113209;28;20043;-66
2022/11/27 06:56:58;;;;;;;12.63;4.80;;;5.70;99.90;;;;;;5112909;28;20031;-66
2022/11/27 06:59:23;;;;;;;9.40;4.50;;;5.70;99.90;;;;;;5113122;28;20028;-67
2022/11/27 07:01:49;;;;;;;8.77;4.00;;;5.70;99.90;;;;;;5113072;28;20036;-67
2022/11/27 07:04:15;;;;;;;11.55;4.28;;;5.70;99.90;;;;;;5112790;28;20048;-67
2022/11/27 07:06:41;;;;;;;11.77;4.30;;;5.70;99.90;;;;;;5112980;28;20391;-66
2022/11/27 07:09:08;;;;;;;8.98;4.60;;;5.70;99.90;;;;;;5112562;28;20054;-67
2022/11/27 07:11:34;;;;;;;15.95;5.03;;;5.70;99.90;;;;;;5112761;28;20027;-66
2022/11/27 07:14:02;;;;;;;15.93;5.50;;;5.70;99.90;;;;;;5113062;28;20035;-67
2022/11/27 07:16:31;;;;;;;11.00;4.55;;;5.70;99.90;;;;;;5112930;28;20051;-67
2022/11/27 07:19:03;;;;;;;10.52;5.13;;;5.70;99.90;;;;;;5112998;28;20079;-68
2022/11/27 07:21:29;;;;;;;12.45;4.80;;;5.70;99.90;;;;;;5113003;28;20110;-68
2022/11/27 07:23:55;;;;;;;8.68;4.75;;;5.70;99.90;;;;;;5112824;28;20053;-68
2022/11/27 07:26:26;;;;;;;9.38;4.75;;;5.70;99.90;;;;;;5095616;28;20047;-67
2022/11/27 07:28:52;;;;;;;11.77;5.10;;;5.70;99.90;;;;;;5113082;28;20371;-68
2022/11/27 07:31:23;;;;;;;12.32;4.75;;;5.80;99.90;;;;;;5112779;28;20493;-66
2022/11/27 07:33:51;;;;;;;13.07;5.13;;;5.80;99.90;;;;;;5112744;28;20032;-67
2022/11/27 07:36:26;;;;;;;10.05;4.85;;;5.80;99.90;;;;;;5112655;28;20039;-67
2022/11/27 07:38:51;;;;;;;13.40;5.10;;;5.80;99.90;;;;;;5112614;28;20126;-67
2022/11/27 07:41:17;;;;;;;13.38;5.70;;;5.80;99.90;;;;;;5112480;28;20123;-66
2022/11/27 07:43:44;;;;;;;11.60;5.40;;;5.80;99.90;;;;;;5095325;28;20054;-68
2022/11/27 07:46:18;;;;;;;10.93;5.38;;;5.80;99.90;;;;;;5111854;28;20039;-66
2022/11/27 07:48:44;;;;;;;9.43;5.63;;;5.80;99.90;;;;;;5112615;28;20088;-67
2022/11/27 07:51:12;;;;;;;11.98;5.38;;;5.80;99.90;;;;;;5112570;28;20034;-67
2022/11/27 07:53:39;;;;;;;13.20;6.22;;;5.90;99.90;;;;;;5112203;28;20111;-67
2022/11/27 07:56:10;;;;;;;11.90;5.22;;;5.90;99.90;;;;;;5112565;28;20486;-67
2022/11/27 07:58:36;;;;;;;13.23;5.28;;;5.90;99.90;;;;;;5112217;28;20085;-67
2022/11/27 08:01:07;;;;;;;13.30;5.40;;;5.90;99.90;;;;;;5112172;28;20496;-68
2022/11/27 08:03:33;;;;;;;11.77;5.60;;;5.80;99.90;;;;;;5112419;28;20482;-67
2022/11/27 08:05:59;;;;;;;12.25;5.70;;;5.90;99.90;;;;;;5112051;28;20040;-68
2022/11/27 08:08:24;;;;;;;12.38;5.28;;;5.80;99.90;;;;;;5112034;28;20101;-66
2022/11/27 08:10:50;;;;;;;13.77;5.57;;;5.90;99.90;;;;;;5112102;28;20099;-67
2022/11/27 08:13:16;;;;;;;22.17;6.53;;;5.90;99.90;;;;;;5112012;28;20107;-67
2022/11/27 08:15:41;;;;;;;14.65;6.65;;;5.90;99.90;;;;;;5112222;28;20043;-67
2022/11/27 08:18:07;;;;;;;13.98;5.82;;;5.90;99.90;;;;;;5094702;28;20054;-67
2022/11/27 08:20:33;;;;;;;12.98;6.35;;;5.90;99.90;;;;;;5111728;28;20039;-67
2022/11/27 08:22:58;;;;;;;14.75;6.22;;;5.90;99.90;;;;;;5112090;28;20088;-66
2022/11/27 08:25:24;;;;;;;13.95;6.35;;;6.00;99.90;;;;;;5094227;28;20051;-68
2022/11/27 08:27:50;;;;;;;12.73;6.15;;;6.00;99.90;;;;;;5111733;28;20040;-66
2022/11/27 08:30:16;;;;;;;14.15;6.18;;;6.00;99.90;;;;;;5091750;28;20056;-67
2022/11/27 08:32:42;;;;;;;16.52;6.50;;;6.00;99.90;;;;;;5111271;28;20040;-68
2022/11/27 08:35:09;;;;;;;15.02;6.18;;;6.00;99.90;;;;;;5111135;28;20039;-68
2022/11/27 08:37:35;;;;;;;11.77;6.07;;;6.10;99.90;;;;;;5111145;28;20066;-67
2022/11/27 08:40:02;;;;;;;11.27;6.03;;;6.00;99.90;;;;;;5094278;28;20126;-67
2022/11/27 08:42:27;;;;;;;12.77;6.15;;;6.10;99.90;;;;;;5111457;28;20558;-67
2022/11/27 08:44:53;;;;;;;13.38;6.25;;;6.10;99.90;;;;;;5110927;28;20028;-65
2022/11/27 08:47:18;;;;;;;13.57;5.90;;;6.10;99.90;;;;;;5110773;28;20084;-66
2022/11/27 08:49:44;;;;;;;16.15;6.60;;;6.20;99.90;;;;;;5111380;28;20047;-68
2022/11/27 08:52:11;;;;;;;12.82;6.10;;;6.20;99.90;;;;;;5110896;28;20055;-66
2022/11/27 08:54:36;;;;;;;12.68;5.82;;;6.20;99.90;;;;;;5110833;28;20052;-67
2022/11/27 08:57:02;;;;;;;14.80;6.28;;;6.20;99.90;;;;;;5093484;28;20051;-66
2022/11/27 08:59:28;;;;;;;12.07;5.75;;;6.20;99.90;;;;;;5111091;28;20046;-67
2022/11/27 09:01:54;;;;;;;12.00;6.18;;;6.30;99.90;;;;;;5110184;28;20046;-65
2022/11/27 09:04:19;;;;;;;12.60;6.22;;;6.30;99.90;;;;;;5110878;28;20432;-68
2022/11/27 09:06:47;;;;;;;11.80;5.75;;;6.30;99.90;;;;;;5110970;28;20406;-66
2022/11/27 09:09:13;;;;;;;14.10;7.00;;;6.30;99.90;;;;;;5093192;28;20394;-68
2022/11/27 09:11:39;;;;;;;10.48;5.65;;;6.30;99.90;;;;;;5110716;28;20043;-67
2022/11/27 09:14:05;;;;;;;16.05;6.50;;;6.30;99.90;;;;;;5110908;28;20557;-66
2022/11/27 09:16:31;;;;;;;12.05;7.03;;;6.30;99.90;;;;;;5110678;28;20054;-68
2022/11/27 09:18:57;;;;;;;13.75;6.53;;;6.30;99.90;;;;;;5110855;28;20130;-68
2022/11/27 09:21:29;;;;;;;14.40;6.15;;;6.30;99.90;;;;;;5093211;28;20048;-68
2022/11/27 09:23:59;;;;;;;10.50;6.18;;;6.30;99.90;;;;;;5110772;28;20104;-68
2022/11/27 09:26:26;;;;;;;12.40;6.85;;;6.30;99.90;;;;;;5110457;28;20036;-66
2022/11/27 09:28:53;;;;;;;14.77;6.60;;;6.30;99.90;;;;;;5110386;28;20086;-66
2022/11/27 09:31:19;;;;;;;12.55;6.45;;;6.30;99.90;;;;;;5110897;28;20451;-67
2022/11/27 09:33:45;;;;;;;13.63;6.50;;;6.30;99.90;;;;;;5093566;28;20042;-66
2022/11/27 09:36:15;;;;;;;11.77;6.28;;;6.30;99.90;;;;;;5110435;28;20486;-66
2022/11/27 09:38:41;;;;;;;14.43;6.60;;;6.30;99.90;;;;;;5093471;28;20056;-67
2022/11/27 09:41:12;;;;;;;14.80;6.35;;;6.30;99.90;;;;;;5110212;28;20096;-68
2022/11/27 09:44:02;;;;;;;13.05;6.95;;;6.30;99.90;;;;;;5093238;28;20043;-67
2022/11/27 09:46:41;;;;;;;13.00;6.80;;;6.30;99.90;;;;;;5110109;28;20096;-67
2022/11/27 09:49:13;;;;;;;12.88;7.18;;;6.30;99.90;;;;;;5110297;28;20097;-66
2022/11/27 09:51:44;;;;;;;12.00;6.63;;;6.30;99.90;;;;;;5093132;28;20041;-67
2022/11/27 09:54:36;;;;;;;13.30;6.72;;;6.30;99.90;;;;;;5109961;28;20464;-65
2022/11/27 09:57:03;;;;;;;13.02;6.80;;;6.30;99.90;;;;;;5109925;28;20043;-67
2022/11/27 09:59:38;;;;;;;14.52;7.45;;;6.30;99.90;;;;;;5109880;28;20066;-67
2022/11/27 10:02:14;;;;;;;15.30;7.55;;;6.30;99.90;;;;;;5109895;28;20039;-67
2022/11/27 10:04:39;;;;;;;14.93;6.88;;;6.30;99.90;;;;;;5110191;28;20044;-68
2022/11/27 10:07:23;;;;;;;14.38;7.63;;;6.30;99.90;;;;;;5109366;28;20040;-67
2022/11/27 10:10:01;;;;;;;17.27;7.45;;;6.30;99.90;;;;;;5089846;28;20390;-65
2022/11/27 10:12:35;;;;;;;11.73;7.38;;;6.20;99.90;;;;;;5089561;28;20089;-66
2022/11/27 10:15:05;;;;;;;16.77;8.13;;;6.20;99.90;;;;;;5089339;28;20123;-65
2022/11/27 10:17:34;;;;;;;18.17;8.05;;;6.20;99.90;;;;;;5089442;28;20036;-66
2022/11/27 10:20:00;;;;;;;15.95;7.57;;;6.20;99.90;;;;;;5086885;28;20050;-67
2022/11/27 10:22:50;;;;;;;15.77;8.50;;;6.20;99.90;;;;;;5084859;28;20477;-65
2022/11/27 10:25:20;;;;;;;17.25;8.05;;;6.20;99.90;;;;;;5088897;28;20114;-66
2022/11/27 10:28:04;;;;;;;13.70;7.78;;;6.20;99.90;;;;;;5088944;28;20050;-67
2022/11/27 10:30:35;;;;;;;19.85;8.55;;;6.20;99.90;;;;;;5089011;28;20089;-66
2022/11/27 10:33:02;;;;;;;19.88;8.65;;;6.20;99.90;;;;;;5090224;28;20039;-67
2022/11/27 10:35:31;;;;;;;16.13;8.32;;;6.10;99.90;;;;;;5089114;28;20036;-66
2022/11/27 10:37:59;;;;;;;13.32;7.30;;;6.20;99.90;;;;;;5090363;28;20040;-67
2022/11/27 10:40:36;;;;;;;14.82;6.60;;;6.10;99.90;;;;;;5088871;28;20036;-66
2022/11/27 10:43:19;;;;;;;16.67;8.27;;;6.10;99.90;;;;;;5088030;28;20075;-69
2022/11/27 10:45:49;;;;;;;19.73;7.72;;;6.10;99.90;;;;;;5089023;28;20051;-68
2022/11/27 10:48:15;;;;;;;14.15;7.10;;;6.10;99.90;;;;;;5088634;28;20042;-68
2022/11/27 10:50:42;;;;;;;15.55;7.40;;;6.10;99.90;;;;;;5088688;28;20044;-65
2022/11/27 10:53:13;;;;;;;16.83;7.47;;;6.10;99.90;;;;;;5088515;28;20386;-67
2022/11/27 10:56:06;;;;;;;15.88;7.35;;;6.10;99.90;;;;;;5088786;28;20043;-68
2022/11/27 10:58:44;;;;;;;;;;;6.10;99.90;;;;;;5089517;28;20039;-67
2022/11/27 11:01:13;;;;;;;18.05;8.35;;;6.20;99.90;;;;;;5089215;28;20438;-67
2022/11/27 11:03:39;;;;;;;17.10;8.05;;;6.10;99.90;;;;;;5088966;28;20040;-68
2022/11/27 11:06:23;;;;;;;15.98;7.32;;;6.10;99.90;;;;;;5072063;28;20514;-66
2022/11/27 11:09:04;;;;;;;13.63;6.78;;;6.10;99.90;;;;;;5086326;28;20073;-67
2022/11/27 11:11:30;;;;;;;14.38;7.63;;;6.10;99.90;;;;;;5109454;28;20390;-67
2022/11/27 11:13:56;;;;;;;16.13;8.18;;;6.10;99.90;;;;;;5109488;28;20035;-66
2022/11/27 11:16:24;;;;;;;14.10;7.68;;;6.20;99.90;;;;;;5109328;28;20118;-65
2022/11/27 11:18:52;;;;;;;14.90;7.40;;;6.20;99.90;;;;;;5110094;28;20122;-67
2022/11/27 11:21:41;;;;;;;15.23;8.38;;;6.20;99.90;;;;;;5112790;28;20105;-66
2022/11/27 11:24:28;;;;;;;15.55;7.38;;;6.20;99.90;;;;;;5113072;28;20077;-68
2022/11/27 11:26:59;;;;;;;16.23;7.28;;;6.20;99.90;;;;;;5112765;28;20031;-67
2022/11/27 11:29:30;;;;;;;12.48;7.38;;;6.20;99.90;;;;;;5095518;28;20052;-67
2022/11/27 11:32:01;;;;;;;11.60;7.10;;;6.20;99.90;;;;;;5112937;28;20042;-65
2022/11/27 11:34:29;;;;;;;13.73;7.13;;;6.20;99.90;;;;;;5113053;28;20119;-67
2022/11/27 11:37:06;;;;;;;13.85;6.97;;;6.20;99.90;;;;;;5096004;28;20058;-67
2022/11/27 11:39:44;;;;;;;12.40;7.32;;;6.30;99.90;;;;;;5112206;28;20039;-68
2022/11/27 11:42:17;;;;;;;14.02;7.25;;;6.20;99.90;;;;;;5112747;28;20492;-67
2022/11/27 11:44:53;;;;;;;17.83;8.07;;;6.20;99.90;;;;;;5095898;28;20046;-69
2022/11/27 11:47:23;;;;;;;13.45;7.13;;;6.30;99.90;;;;;;5112498;28;20050;-66
2022/11/27 11:49:50;;;;;;;18.50;7.90;;;6.20;99.90;;;;;;5112412;28;20043;-69
2022/11/27 11:52:45;;;;;;;15.70;7.25;;;6.30;99.90;;;;;;5112553;28;20386;-68
2022/11/27 11:55:35;;;;;;;15.18;7.20;;;6.20;99.90;;;;;;5112595;28;20387;-68
2022/11/27 11:58:25;;;;;;;17.67;7.47;;;6.20;99.90;;;;;;5112582;28;20501;-67
2022/11/27 12:01:08;;;;;;;14.80;7.13;;;6.20;99.90;;;;;;5112342;28;20065;-66
2022/11/27 12:03:44;;;;;;;13.38;7.47;;;6.20;99.90;;;;;;5095157;28;20513;-66
2022/11/27 12:06:31;;;;;;;15.77;7.72;;;6.30;99.90;;;;;;5112072;28;20040;-67
2022/11/27 12:09:07;;;;;;;11.43;6.88;;;6.20;99.90;;;;;;5112198;28;20044;-68
2022/11/27 12:11:53;;;;;;;12.57;6.70;;;6.30;99.90;;;;;;5109483;28;20525;-67
2022/11/27 12:14:49;;;;;;;14.13;7.03;;;6.30;99.90;;;;;;5094285;28;20044;-66
2022/11/27 12:17:21;;;;;;;11.60;7.10;;;6.30;99.90;;;;;;5111936;28;20043;-66
2022/11/27 12:20:08;;;;;;;11.38;6.78;;;6.30;99.90;;;;;;5111807;28;20481;-66
2022/11/27 12:22:37;;;;;;;16.42;9.25;;;6.30;99.90;;;;;;5111523;28;20039;-67
2022/11/27 12:25:32;;;;;;;17.40;10.05;;;6.30;99.90;;;;;;5111701;28;20417;-66
2022/11/27 12:28:23;;;;;;;12.20;7.20;;;6.30;99.90;;;;;;5111548;28;20046;-68
2022/11/27 12:31:10;;;;;;;18.33;8.52;;;6.30;99.90;;;;;;5110663;28;20069;-67
2022/11/27 12:33:49;;;;;;;14.73;8.77;;;6.40;99.90;;;;;;5111353;28;20633;-67
2022/11/27 12:36:45;;;;;;;12.38;7.35;;;6.40;99.90;;;;;;5111175;28;20053;-66
2022/11/27 12:39:49;;;;;;;17.23;7.25;;;6.40;99.90;;;;;;5111169;28;20131;-67
2022/11/27 12:42:19;;;;;;;15.25;7.07;;;6.40;99.90;;;;;;5110753;28;20212;-68
2022/11/27 12:45:03;;;;;;;16.30;7.78;;;6.40;99.90;;;;;;5110748;28;20040;-66
2022/11/27 12:47:38;;;;;;;14.65;6.88;;;6.40;99.90;;;;;;5111707;28;20039;-67
2022/11/27 12:50:19;;;;;;;18.38;8.77;;;6.40;99.90;;;;;;5111341;28;20035;-66
2022/11/27 12:52:56;;;;;;;10.68;6.45;;;6.40;99.90;;;;;;5111158;28;20031;-66
2022/11/27 12:55:26;;;;;;;9.95;6.90;;;6.40;99.90;;;;;;5111144;28;20048;-68
2022/11/27 12:58:09;;;;;;;11.57;6.53;;;6.40;99.90;;;;;;5112355;28;20050;-66
2022/11/27 13:00:39;;;;;;;15.52;6.78;;;6.40;99.90;;;;;;5110942;28;20338;-67
2022/11/27 13:03:29;;;;;;;12.88;6.47;;;6.40;99.90;;;;;;5094289;28;20042;-66